Time;durP1;ratioP1;P1;durP2;ratioP2;P2;SDS_P1;SDS_P2;PMS_P1;PMS_P2;Temp;Humidity;BMP_temperature;BMP_pressure;BME280_temperature;BME280_humidity;BME280_pressure;Samples;Min_cycle;Max_cycle;Signal;HPM_P1;HPM_P2
2023/11/29 00:01:13;;;;;;;6.75;5.88;;;2.00;99.90;;;;;;5100593;28;20035;-69
2023/11/29 00:03:39;;;;;;;5.88;5.25;;;2.00;99.90;;;;;;5104323;28;20080;-69
2023/11/29 00:06:05;;;;;;;5.35;3.67;;;2.00;99.90;;;;;;5131395;27;20043;-70
2023/11/29 00:08:30;;;;;;;3.63;3.00;;;2.00;99.90;;;;;;5103052;27;20101;-70
2023/11/29 00:10:56;;;;;;;2.58;2.15;;;1.90;99.90;;;;;;5100882;28;20039;-70
2023/11/29 00:13:22;;;;;;;4.07;2.53;;;1.80;99.90;;;;;;5104871;28;20055;-70
2023/11/29 00:15:48;;;;;;;3.33;1.98;;;1.80;99.90;;;;;;5129278;27;20406;-70
2023/11/29 00:18:15;;;;;;;2.65;1.95;;;1.70;99.90;;;;;;5103334;27;20085;-70
2023/11/29 00:20:40;;;;;;;3.03;2.50;;;1.70;99.90;;;;;;5100016;28;20038;-70
2023/11/29 00:23:06;;;;;;;3.08;2.78;;;1.70;99.90;;;;;;5103031;28;20110;-70
2023/11/29 00:25:32;;;;;;;2.55;2.30;;;1.70;99.90;;;;;;5132127;27;20388;-70
2023/11/29 00:27:58;;;;;;;3.72;2.50;;;1.60;99.90;;;;;;5101358;28;20089;-70
2023/11/29 00:30:23;;;;;;;4.25;2.70;;;1.60;99.90;;;;;;5102407;28;20035;-70
2023/11/29 00:32:49;;;;;;;3.15;2.85;;;1.60;99.90;;;;;;5132218;27;20572;-70
2023/11/29 00:35:17;;;;;;;5.38;2.72;;;1.60;99.90;;;;;;5128159;27;20036;-70
2023/11/29 00:37:43;;;;;;;4.43;2.90;;;1.60;99.90;;;;;;5103413;28;20055;-70
2023/11/29 00:40:09;;;;;;;4.65;3.13;;;1.50;99.90;;;;;;5099280;28;20041;-70
2023/11/29 00:42:34;;;;;;;4.13;3.53;;;1.50;99.90;;;;;;5132432;27;20089;-70
2023/11/29 00:45:00;;;;;;;4.20;3.80;;;1.40;99.90;;;;;;5100059;28;20040;-70
2023/11/29 00:47:26;;;;;;;4.20;3.80;;;1.40;99.90;;;;;;5104717;27;20509;-70
2023/11/29 00:49:51;;;;;;;5.05;4.55;;;1.40;99.90;;;;;;5128324;27;20104;-70
2023/11/29 00:52:17;;;;;;;5.97;5.05;;;1.40;99.90;;;;;;5103559;28;20071;-70
2023/11/29 00:54:42;;;;;;;4.97;4.47;;;1.40;99.90;;;;;;5101949;28;20065;-70
2023/11/29 00:57:08;;;;;;;4.32;3.42;;;1.30;99.90;;;;;;5099761;27;20055;-70
2023/11/29 00:59:34;;;;;;;6.95;3.40;;;1.30;99.90;;;;;;5131102;27;20077;-70
2023/11/29 01:01:59;;;;;;;2.85;2.53;;;1.30;99.90;;;;;;5099115;28;20047;-70
2023/11/29 01:04:25;;;;;;;1.20;0.98;;;1.30;99.90;;;;;;5100915;27;20108;-70
2023/11/29 01:06:51;;;;;;;1.15;0.55;;;1.30;99.90;;;;;;5102710;28;20111;-70
2023/11/29 01:09:17;;;;;;;0.70;0.20;;;1.30;99.90;;;;;;5098775;28;20076;-70
2023/11/29 01:11:43;;;;;;;0.20;0.10;;;1.30;99.90;;;;;;5126173;27;20122;-70
2023/11/29 01:14:08;;;;;;;0.95;0.10;;;1.30;99.90;;;;;;5101391;28;20556;-70
2023/11/29 01:16:34;;;;;;;0.10;0.00;;;1.30;99.90;;;;;;5128762;27;20043;-70
2023/11/29 01:19:00;;;;;;;0.43;0.00;;;1.30;99.90;;;;;;5100511;28;20054;-70
2023/11/29 01:21:27;;;;;;;0.00;0.00;;;1.40;99.90;;;;;;5102244;28;20478;-70
2023/11/29 01:23:53;;;;;;;1.05;0.00;;;1.30;99.90;;;;;;5099377;28;20043;-70
2023/11/29 01:26:18;;;;;;;0.00;0.00;;;1.30;99.90;;;;;;5101475;27;20450;-69
2023/11/29 01:28:44;;;;;;;0.43;0.10;;;1.30;99.90;;;;;;5101544;27;20039;-69
2023/11/29 01:31:10;;;;;;;0.20;0.00;;;1.30;99.90;;;;;;5128351;27;20048;-69
2023/11/29 01:33:35;;;;;;;0.80;0.10;;;1.30;99.90;;;;;;5099768;28;20040;-70
2023/11/29 01:36:08;;;;;;;0.25;0.20;;;1.30;99.90;;;;;;5098289;27;20047;-70
2023/11/29 01:38:34;;;;;;;1.88;0.70;;;1.30;99.90;;;;;;5129980;27;20043;-70
2023/11/29 01:40:59;;;;;;;1.98;0.82;;;1.20;99.90;;;;;;5099614;28;20093;-69
2023/11/29 01:43:25;;;;;;;4.55;1.80;;;1.30;99.90;;;;;;5101931;28;20393;-69
2023/11/29 01:45:51;;;;;;;2.78;1.77;;;1.30;99.90;;;;;;5100262;27;20088;-69
2023/11/29 01:48:18;;;;;;;4.35;2.90;;;1.30;99.90;;;;;;5102893;28;20048;-69
2023/11/29 01:50:45;;;;;;;3.70;3.40;;;1.30;99.90;;;;;;5127252;27;20088;-69
2023/11/29 01:53:12;;;;;;;5.05;4.00;;;1.40;99.90;;;;;;5102294;28;20063;-69
2023/11/29 01:55:40;;;;;;;6.15;4.53;;;1.30;99.90;;;;;;5100679;28;20446;-69
2023/11/29 01:58:05;;;;;;;6.03;4.38;;;1.30;99.90;;;;;;5101856;28;20031;-69
2023/11/29 02:00:31;;;;;;;5.80;4.30;;;1.30;99.90;;;;;;5099267;28;20040;-69
2023/11/29 02:02:58;;;;;;;6.75;4.85;;;1.30;99.90;;;;;;5101960;28;20044;-69
2023/11/29 02:05:23;;;;;;;6.20;5.35;;;1.40;99.90;;;;;;5131031;27;20054;-69
2023/11/29 02:07:49;;;;;;;6.50;5.88;;;1.40;99.90;;;;;;5097534;28;20040;-69
2023/11/29 02:10:15;;;;;;;6.30;5.68;;;1.40;99.90;;;;;;5126114;27;20047;-69
2023/11/29 02:12:41;;;;;;;7.85;6.47;;;1.40;99.90;;;;;;5094929;28;20098;-69
2023/11/29 02:15:08;;;;;;;6.32;5.72;;;1.40;99.90;;;;;;5128198;27;20046;-69
2023/11/29 02:17:34;;;;;;;9.07;6.22;;;1.50;99.90;;;;;;5130728;27;20048;-69
2023/11/29 02:20:00;;;;;;;6.38;5.30;;;1.50;99.90;;;;;;5126881;27;20508;-69
2023/11/29 02:22:27;;;;;;;6.30;4.95;;;1.50;99.90;;;;;;5101922;28;20354;-69
2023/11/29 02:24:53;;;;;;;5.60;4.35;;;1.50;99.90;;;;;;5101433;28;20042;-69
2023/11/29 02:27:20;;;;;;;5.60;3.90;;;1.60;99.90;;;;;;5100646;28;20036;-69
2023/11/29 02:29:46;;;;;;;3.85;3.20;;;1.60;99.90;;;;;;5129248;27;20040;-69
2023/11/29 02:32:11;;;;;;;3.28;2.45;;;1.60;99.90;;;;;;5100210;28;20054;-69
2023/11/29 02:34:37;;;;;;;4.57;2.60;;;1.60;99.90;;;;;;5100423;28;20422;-69
2023/11/29 02:37:03;;;;;;;6.95;1.70;;;1.60;99.90;;;;;;5108267;28;20035;-69
2023/11/29 02:39:29;;;;;;;4.85;1.42;;;1.60;99.90;;;;;;5128146;27;20039;-69
2023/11/29 02:41:55;;;;;;;1.38;0.80;;;1.60;99.90;;;;;;5104541;27;20040;-69
2023/11/29 02:44:21;;;;;;;0.95;0.50;;;1.60;99.90;;;;;;5133060;27;20031;-69
2023/11/29 02:46:47;;;;;;;0.80;0.20;;;1.70;99.90;;;;;;5105837;28;20032;-69
2023/11/29 02:49:12;;;;;;;0.80;0.43;;;1.70;99.90;;;;;;5103478;27;20044;-69
2023/11/29 02:51:38;;;;;;;0.40;0.30;;;1.60;99.90;;;;;;5104756;27;20027;-69
2023/11/29 02:54:04;;;;;;;0.80;0.40;;;1.60;99.90;;;;;;5134985;27;21013;-69
2023/11/29 02:56:29;;;;;;;1.05;0.47;;;1.60;99.90;;;;;;5129994;27;20040;-69
2023/11/29 02:58:55;;;;;;;1.35;0.52;;;1.60;99.90;;;;;;5133371;27;20040;-69
2023/11/29 03:01:21;;;;;;;1.77;0.77;;;1.60;99.90;;;;;;5105919;27;20145;-69
2023/11/29 03:03:46;;;;;;;1.20;0.70;;;1.50;99.90;;;;;;5134330;27;20039;-69
2023/11/29 03:06:12;;;;;;;1.30;1.10;;;1.50;99.90;;;;;;5107012;27;20043;-69
2023/11/29 03:08:38;;;;;;;2.30;1.50;;;1.50;99.90;;;;;;5100677;27;20047;-69
2023/11/29 03:11:03;;;;;;;1.38;1.20;;;1.50;99.90;;;;;;5105409;27;20027;-69
2023/11/29 03:13:29;;;;;;;3.22;1.50;;;1.50;99.90;;;;;;5104209;27;20036;-69
2023/11/29 03:15:55;;;;;;;2.95;1.63;;;1.50;99.90;;;;;;5101888;27;20040;-69
2023/11/29 03:18:21;;;;;;;3.10;1.60;;;1.50;99.90;;;;;;5102703;28;20090;-69
2023/11/29 03:20:46;;;;;;;1.92;1.70;;;1.50;99.90;;;;;;5082073;28;20039;-69
2023/11/29 03:23:12;;;;;;;2.63;2.40;;;1.50;99.90;;;;;;5101846;27;20370;-69
2023/11/29 03:25:38;;;;;;;2.78;2.10;;;1.50;99.90;;;;;;5104090;27;20043;-69
2023/11/29 03:28:04;;;;;;;2.72;2.17;;;1.50;99.90;;;;;;5101859;28;20043;-69
2023/11/29 03:30:30;;;;;;;4.32;2.40;;;1.40;99.90;;;;;;5129401;27;20055;-69
2023/11/29 03:32:56;;;;;;;2.95;2.65;;;1.50;99.90;;;;;;5103733;27;20036;-69
2023/11/29 03:35:21;;;;;;;3.75;2.90;;;1.50;99.90;;;;;;5103337;27;20042;-69
2023/11/29 03:37:47;;;;;;;3.20;2.72;;;1.50;99.90;;;;;;5104938;28;20043;-69
2023/11/29 03:40:13;;;;;;;3.38;2.20;;;1.50;99.90;;;;;;5101783;28;20064;-69
2023/11/29 03:42:39;;;;;;;5.13;3.15;;;1.60;99.90;;;;;;5133705;27;20047;-69
2023/11/29 03:45:05;;;;;;;3.70;2.80;;;1.60;99.90;;;;;;5132345;27;20036;-69
2023/11/29 03:47:31;;;;;;;3.45;3.10;;;1.60;99.90;;;;;;5102227;28;20486;-69
2023/11/29 03:49:56;;;;;;;4.35;3.58;;;1.60;99.90;;;;;;5130999;27;20054;-69
2023/11/29 03:52:24;;;;;;;4.53;3.45;;;1.60;99.90;;;;;;5129956;27;20047;-69
2023/11/29 03:54:50;;;;;;;4.07;3.15;;;1.50;99.90;;;;;;5130735;27;20047;-69
2023/11/29 03:57:16;;;;;;;4.45;3.80;;;1.60;99.90;;;;;;5101070;27;20048;-69
2023/11/29 03:59:41;;;;;;;6.45;4.05;;;1.60;99.90;;;;;;5100258;27;20046;-69
2023/11/29 04:02:07;;;;;;;5.07;4.57;;;1.60;99.90;;;;;;5103708;27;20112;-69
2023/11/29 04:04:33;;;;;;;5.05;4.20;;;1.60;99.90;;;;;;5131241;27;20093;-69
2023/11/29 04:07:02;;;;;;;6.97;4.53;;;1.60;99.90;;;;;;5091178;28;20089;-69
2023/11/29 04:09:28;;;;;;;6.07;3.97;;;1.70;99.90;;;;;;5132457;27;20040;-69
2023/11/29 04:11:54;;;;;;;5.25;4.22;;;1.70;99.90;;;;;;5103151;27;20036;-69
2023/11/29 04:14:19;;;;;;;6.60;4.43;;;1.70;99.90;;;;;;5130701;27;20085;-69
2023/11/29 04:16:45;;;;;;;4.80;4.10;;;1.70;99.90;;;;;;5099907;28;20039;-69
2023/11/29 04:19:11;;;;;;;7.45;4.05;;;1.70;99.90;;;;;;5101008;27;20036;-69
2023/11/29 04:21:36;;;;;;;5.80;3.97;;;1.80;99.90;;;;;;5100374;27;20076;-69
2023/11/29 04:24:02;;;;;;;7.00;3.90;;;1.70;99.90;;;;;;5100744;28;20048;-69
2023/11/29 04:26:29;;;;;;;7.75;3.90;;;1.70;99.90;;;;;;5102396;27;20505;-69
2023/11/29 04:28:56;;;;;;;6.28;3.40;;;1.80;99.90;;;;;;5102931;27;20502;-69
2023/11/29 04:31:22;;;;;;;8.73;3.83;;;1.80;99.90;;;;;;5102524;27;20085;-69
2023/11/29 04:33:48;;;;;;;6.50;4.22;;;1.80;99.90;;;;;;5129794;27;20040;-69
2023/11/29 04:36:14;;;;;;;10.57;4.28;;;1.80;99.90;;;;;;5101042;28;20045;-69
2023/11/29 04:38:39;;;;;;;5.25;3.53;;;1.90;99.90;;;;;;5103544;27;20044;-69
2023/11/29 04:41:05;;;;;;;4.70;2.97;;;1.90;99.90;;;;;;5099560;27;20397;-69
2023/11/29 04:43:31;;;;;;;3.20;2.10;;;1.90;99.90;;;;;;5129127;27;20032;-69
2023/11/29 04:45:56;;;;;;;5.30;1.83;;;1.90;99.90;;;;;;5085328;28;20044;-69
2023/11/29 04:48:22;;;;;;;6.70;2.05;;;1.90;99.90;;;;;;5103603;27;20050;-69
2023/11/29 04:50:51;;;;;;;5.60;2.42;;;1.90;99.90;;;;;;5096131;27;20075;-69
2023/11/29 04:53:17;;;;;;;4.53;2.28;;;1.90;99.90;;;;;;5100143;27;20039;-69
2023/11/29 04:55:43;;;;;;;4.82;2.35;;;1.90;99.90;;;;;;5101294;27;20398;-69
2023/11/29 04:58:08;;;;;;;3.85;2.33;;;1.90;99.90;;;;;;5099202;28;20039;-69
2023/11/29 05:00:34;;;;;;;4.68;2.28;;;1.90;99.90;;;;;;5095398;28;20035;-69
2023/11/29 05:02:59;;;;;;;4.50;2.05;;;1.80;99.90;;;;;;5102741;27;20118;-69
2023/11/29 05:05:25;;;;;;;6.25;2.20;;;1.80;99.90;;;;;;5127283;27;20681;-69
2023/11/29 05:07:53;;;;;;;4.05;1.70;;;1.80;99.90;;;;;;5102038;28;20042;-69
2023/11/29 05:10:20;;;;;;;5.53;2.22;;;1.80;99.90;;;;;;5099942;27;20052;-69
2023/11/29 05:12:45;;;;;;;5.45;2.60;;;1.80;99.90;;;;;;5131014;27;20056;-69
2023/11/29 05:15:11;;;;;;;3.40;1.85;;;1.80;99.90;;;;;;5130817;27;20040;-69
2023/11/29 05:17:37;;;;;;;3.40;2.10;;;1.80;99.90;;;;;;5129153;27;20132;-69
2023/11/29 05:20:03;;;;;;;5.30;2.30;;;1.80;99.90;;;;;;5126826;27;20122;-69
2023/11/29 05:22:29;;;;;;;5.72;2.10;;;1.70;99.90;;;;;;5099778;27;20539;-69
2023/11/29 05:24:54;;;;;;;4.65;2.35;;;1.80;99.90;;;;;;5101936;27;20070;-69
2023/11/29 05:27:20;;;;;;;6.30;1.67;;;1.90;99.90;;;;;;5102700;28;20085;-68
2023/11/29 05:29:46;;;;;;;4.97;1.17;;;1.80;99.90;;;;;;5100527;28;20569;-69
2023/11/29 05:32:12;;;;;;;3.47;1.58;;;1.90;99.90;;;;;;5130432;27;20055;-69
2023/11/29 05:34:38;;;;;;;4.50;1.50;;;1.90;99.90;;;;;;5128153;27;20039;-69
2023/11/29 05:37:03;;;;;;;7.75;1.50;;;1.90;99.90;;;;;;5101970;27;20615;-69
2023/11/29 05:39:29;;;;;;;2.42;0.88;;;2.00;99.90;;;;;;5128153;27;20043;-69
2023/11/29 05:41:55;;;;;;;6.43;1.60;;;1.90;99.90;;;;;;5128902;27;20043;-69
2023/11/29 05:44:21;;;;;;;7.05;1.30;;;2.00;99.90;;;;;;5101260;27;20042;-69
2023/11/29 05:46:46;;;;;;;6.30;1.42;;;2.00;99.90;;;;;;5098619;28;20659;-69
2023/11/29 05:49:12;;;;;;;7.05;1.77;;;2.00;99.90;;;;;;5100196;27;20481;-69
2023/11/29 05:51:37;;;;;;;4.18;1.00;;;2.00;99.90;;;;;;5114613;27;20081;-69
2023/11/29 05:54:03;;;;;;;2.80;1.23;;;2.10;99.90;;;;;;5096468;28;20032;-69
2023/11/29 05:56:29;;;;;;;2.47;0.80;;;2.10;99.90;;;;;;5095166;28;20546;-69
2023/11/29 05:58:55;;;;;;;4.65;0.77;;;2.10;99.90;;;;;;5093881;28;20038;-69
2023/11/29 06:01:20;;;;;;;3.33;1.05;;;2.10;99.90;;;;;;5095041;28;20040;-69
2023/11/29 06:03:46;;;;;;;4.32;0.50;;;2.20;99.90;;;;;;5099346;28;20040;-69
2023/11/29 06:06:13;;;;;;;6.68;0.60;;;2.20;99.90;;;;;;5097439;28;20056;-69
2023/11/29 06:08:40;;;;;;;2.35;0.50;;;2.20;99.90;;;;;;5126457;27;20093;-69
2023/11/29 06:11:07;;;;;;;2.92;0.50;;;2.30;99.90;;;;;;5104474;28;20135;-69
2023/11/29 06:13:33;;;;;;;2.15;0.77;;;2.30;99.90;;;;;;5098893;28;21698;-69
2023/11/29 06:15:59;;;;;;;1.95;0.68;;;2.30;99.90;;;;;;5082168;28;20514;-69
2023/11/29 06:18:25;;;;;;;1.27;0.80;;;2.30;99.90;;;;;;5101162;27;20075;-69
2023/11/29 06:20:51;;;;;;;4.00;1.65;;;2.30;99.90;;;;;;5106164;28;20094;-69
2023/11/29 06:23:17;;;;;;;2.88;1.35;;;2.30;99.90;;;;;;5133111;27;20441;-70
2023/11/29 06:25:43;;;;;;;5.47;1.50;;;2.30;99.90;;;;;;5132426;27;20051;-69
2023/11/29 06:28:09;;;;;;;6.97;4.10;;;2.30;99.90;;;;;;5105007;27;20834;-69
2023/11/29 06:30:34;;;;;;;6.68;2.63;;;2.30;99.90;;;;;;5102185;28;20497;-69
2023/11/29 06:33:00;;;;;;;3.00;2.20;;;2.30;99.90;;;;;;5104351;28;20051;-69
2023/11/29 06:35:26;;;;;;;6.05;2.80;;;2.30;99.90;;;;;;5104013;28;20047;-69
2023/11/29 06:37:51;;;;;;;5.53;2.17;;;2.20;99.90;;;;;;5101772;27;20044;-69
2023/11/29 06:40:17;;;;;;;4.18;2.45;;;2.30;99.90;;;;;;5104168;27;20784;-70
2023/11/29 06:42:43;;;;;;;7.15;2.55;;;2.30;99.90;;;;;;5131638;27;20028;-70
2023/11/29 06:45:12;;;;;;;8.38;2.85;;;2.30;99.90;;;;;;5104841;28;20044;-70
2023/11/29 06:47:38;;;;;;;4.90;3.00;;;2.30;99.90;;;;;;5132467;27;20127;-70
2023/11/29 06:50:04;;;;;;;9.32;4.13;;;2.20;99.90;;;;;;5103276;28;20067;-70
2023/11/29 06:52:30;;;;;;;7.82;3.67;;;2.20;99.90;;;;;;5134054;27;20040;-69
2023/11/29 06:54:56;;;;;;;8.48;2.88;;;2.20;99.90;;;;;;5104407;28;20116;-69
2023/11/29 06:57:22;;;;;;;9.77;3.47;;;2.20;99.90;;;;;;5136691;27;20173;-70
2023/11/29 06:59:48;;;;;;;8.35;3.90;;;2.20;99.90;;;;;;5132918;27;20042;-70
2023/11/29 07:02:14;;;;;;;10.48;3.72;;;2.20;99.90;;;;;;5101645;27;20031;-70
2023/11/29 07:04:43;;;;;;;10.63;3.72;;;2.20;99.90;;;;;;5102086;28;20735;-71
2023/11/29 07:07:09;;;;;;;9.13;3.53;;;2.10;99.90;;;;;;5101330;28;20080;-69
2023/11/29 07:09:35;;;;;;;6.90;3.78;;;2.10;99.90;;;;;;5101391;28;20111;-71
2023/11/29 07:12:01;;;;;;;6.82;3.50;;;2.10;99.90;;;;;;5104800;27;20188;-69
2023/11/29 07:14:27;;;;;;;11.45;3.88;;;2.10;99.90;;;;;;5131762;27;20050;-70
2023/11/29 07:16:53;;;;;;;10.90;3.70;;;2.20;99.90;;;;;;5101265;28;20039;-70
2023/11/29 07:19:19;;;;;;;9.95;4.80;;;2.20;99.90;;;;;;5129830;27;20042;-68
2023/11/29 07:21:44;;;;;;;6.88;3.97;;;2.20;99.90;;;;;;5104261;27;20134;-70
2023/11/29 07:24:10;;;;;;;15.77;4.25;;;2.20;99.90;;;;;;5133814;27;20128;-70
2023/11/29 07:26:36;;;;;;;9.50;3.90;;;2.20;99.90;;;;;;5133423;27;20043;-68
2023/11/29 07:29:03;;;;;;;7.65;4.03;;;2.20;99.90;;;;;;5129588;27;20390;-70
2023/11/29 07:31:29;;;;;;;5.13;3.17;;;2.20;99.90;;;;;;5103108;27;20060;-69
2023/11/29 07:33:56;;;;;;;14.15;4.13;;;2.20;99.90;;;;;;5120701;27;20130;-70
2023/11/29 07:36:22;;;;;;;6.85;3.25;;;2.30;99.90;;;;;;5099594;27;20385;-70
2023/11/29 07:38:49;;;;;;;8.00;3.03;;;2.20;99.90;;;;;;5125733;27;20081;-70
2023/11/29 07:41:16;;;;;;;4.95;2.47;;;2.20;99.90;;;;;;5097255;28;20048;-69
2023/11/29 07:43:42;;;;;;;3.50;2.42;;;2.20;99.90;;;;;;5097068;28;20035;-70
2023/11/29 07:46:08;;;;;;;5.80;2.05;;;2.20;99.90;;;;;;5099460;27;20031;-70
2023/11/29 07:48:33;;;;;;;3.78;2.22;;;2.20;99.90;;;;;;5096821;27;20103;-70
2023/11/29 07:50:59;;;;;;;3.88;2.60;;;2.10;99.90;;;;;;5097609;27;20042;-69
2023/11/29 07:53:25;;;;;;;4.30;2.15;;;2.20;99.90;;;;;;5115501;27;20036;-70
2023/11/29 07:55:51;;;;;;;10.95;2.63;;;2.20;99.90;;;;;;5099472;28;20695;-70
2023/11/29 07:58:17;;;;;;;4.28;2.40;;;2.20;99.90;;;;;;5097235;28;20050;-69
2023/11/29 08:00:42;;;;;;;4.93;2.03;;;2.20;99.90;;;;;;5095794;28;20040;-70
2023/11/29 08:03:08;;;;;;;3.47;2.17;;;2.20;99.90;;;;;;5080478;28;20039;-70
2023/11/29 08:05:35;;;;;;;7.03;2.78;;;2.20;99.90;;;;;;5080443;28;20150;-70
2023/11/29 08:08:01;;;;;;;9.20;2.80;;;2.20;99.90;;;;;;5096379;27;20059;-70
2023/11/29 08:10:29;;;;;;;4.53;2.08;;;2.20;99.90;;;;;;5100161;27;20032;-70
2023/11/29 08:12:54;;;;;;;4.57;2.65;;;2.20;99.90;;;;;;5129513;27;21045;-70
2023/11/29 08:15:20;;;;;;;4.93;2.50;;;2.10;99.90;;;;;;5093832;27;20039;-70
2023/11/29 08:17:46;;;;;;;6.05;2.40;;;2.20;99.90;;;;;;5097054;27;20473;-69
2023/11/29 08:20:12;;;;;;;3.70;2.10;;;2.10;99.90;;;;;;5098096;27;20125;-69
2023/11/29 08:22:38;;;;;;;6.80;2.42;;;2.10;99.90;;;;;;5095197;27;20142;-70
2023/11/29 08:25:04;;;;;;;8.20;2.40;;;2.10;99.90;;;;;;5097137;27;20039;-70
2023/11/29 08:27:29;;;;;;;4.72;3.15;;;2.00;99.90;;;;;;5095834;27;20035;-70
2023/11/29 08:29:55;;;;;;;6.78;2.13;;;2.00;99.90;;;;;;5128550;27;20047;-69
2023/11/29 08:32:21;;;;;;;7.55;2.20;;;2.10;99.90;;;;;;5095461;27;20532;-70
2023/11/29 08:34:47;;;;;;;3.95;1.65;;;2.10;99.90;;;;;;5128845;27;20147;-69
2023/11/29 08:37:13;;;;;;;5.55;1.90;;;2.00;99.90;;;;;;5099610;28;20044;-69
2023/11/29 08:39:38;;;;;;;5.00;1.40;;;2.10;99.90;;;;;;5096810;28;20139;-69
2023/11/29 08:42:05;;;;;;;4.22;1.67;;;2.10;99.90;;;;;;5097125;28;20080;-69
2023/11/29 08:44:34;;;;;;;2.47;1.70;;;2.10;99.90;;;;;;5097534;28;20035;-70
2023/11/29 08:46:59;;;;;;;3.45;1.70;;;2.20;99.90;;;;;;5127617;27;20043;-69
2023/11/29 08:49:25;;;;;;;4.63;1.63;;;2.10;99.90;;;;;;5099695;28;20097;-70
2023/11/29 08:51:51;;;;;;;2.67;1.23;;;2.20;99.90;;;;;;5081021;28;20530;-69
2023/11/29 08:54:16;;;;;;;4.55;1.33;;;2.20;99.90;;;;;;5102479;27;20051;-69
2023/11/29 08:56:43;;;;;;;3.85;1.42;;;2.10;99.90;;;;;;5094488;28;20127;-70
2023/11/29 08:59:09;;;;;;;5.85;1.05;;;2.20;99.90;;;;;;5095833;28;20104;-69
2023/11/29 09:01:34;;;;;;;4.22;1.38;;;2.10;99.90;;;;;;5100053;27;20675;-69
2023/11/29 09:04:01;;;;;;;4.72;1.20;;;2.20;99.90;;;;;;5096565;28;20032;-69
2023/11/29 09:06:26;;;;;;;2.85;1.23;;;2.20;99.90;;;;;;5096419;28;20043;-70
2023/11/29 09:08:53;;;;;;;5.20;1.33;;;2.30;99.90;;;;;;5096891;28;20039;-70
2023/11/29 09:11:18;;;;;;;6.38;1.30;;;2.30;99.90;;;;;;5097809;28;20104;-69
2023/11/29 09:13:48;;;;;;;4.40;0.98;;;2.20;99.90;;;;;;5091723;28;20490;-69
2023/11/29 09:16:15;;;;;;;1.15;0.77;;;2.30;99.90;;;;;;5095085;28;20122;-69
2023/11/29 09:18:45;;;;;;;3.42;1.15;;;2.30;99.90;;;;;;5095714;28;20118;-69
2023/11/29 09:21:10;;;;;;;3.03;0.88;;;2.40;99.90;;;;;;5104021;28;20044;-69
2023/11/29 09:23:37;;;;;;;3.42;1.35;;;2.40;99.90;;;;;;5095275;28;20096;-69
2023/11/29 09:26:03;;;;;;;4.28;1.17;;;2.50;99.90;;;;;;5096300;27;20044;-70
2023/11/29 09:28:29;;;;;;;3.75;1.30;;;2.50;99.90;;;;;;5096077;28;20063;-70
2023/11/29 09:30:55;;;;;;;4.25;1.38;;;2.60;99.90;;;;;;5129647;27;20032;-69
2023/11/29 09:33:23;;;;;;;7.28;1.30;;;2.60;99.90;;;;;;5096602;27;20047;-69
2023/11/29 09:35:49;;;;;;;3.30;1.02;;;2.60;99.90;;;;;;5095391;28;20035;-69
2023/11/29 09:38:16;;;;;;;3.25;1.05;;;2.70;99.90;;;;;;5127996;27;20608;-69
2023/11/29 09:40:43;;;;;;;3.60;1.15;;;2.70;99.90;;;;;;5125333;27;20052;-69
2023/11/29 09:43:09;;;;;;;2.28;1.23;;;2.80;99.90;;;;;;5095654;28;20047;-69
2023/11/29 09:45:35;;;;;;;7.07;1.55;;;2.70;99.90;;;;;;5092726;28;20082;-69
2023/11/29 09:48:03;;;;;;;5.30;1.10;;;2.80;99.90;;;;;;5093830;28;20050;-70
2023/11/29 09:50:31;;;;;;;6.25;1.20;;;2.80;99.90;;;;;;5095147;28;20605;-70
2023/11/29 09:52:57;;;;;;;3.78;1.10;;;2.80;99.90;;;;;;5095116;28;20378;-69
2023/11/29 09:55:25;;;;;;;6.72;0.95;;;2.80;99.90;;;;;;5128921;27;20039;-70
2023/11/29 09:57:51;;;;;;;3.45;0.90;;;2.90;99.90;;;;;;5090784;28;20047;-69
2023/11/29 10:00:17;;;;;;;3.67;1.15;;;2.90;99.90;;;;;;5094376;28;20527;-69
2023/11/29 10:02:43;;;;;;;6.90;1.70;;;3.00;99.90;;;;;;5099601;28;20486;-70
2023/11/29 10:05:10;;;;;;;1.50;1.00;;;3.00;99.90;;;;;;5123655;27;20048;-69
2023/11/29 10:07:36;;;;;;;3.50;1.63;;;3.10;99.90;;;;;;5126835;27;20048;-70
2023/11/29 10:10:05;;;;;;;2.22;1.02;;;3.20;99.90;;;;;;5097784;28;20043;-70
2023/11/29 10:12:30;;;;;;;4.95;0.95;;;3.20;99.90;;;;;;5098649;28;20052;-70
2023/11/29 10:14:56;;;;;;;2.85;0.95;;;3.20;99.90;;;;;;5099149;28;20361;-70
2023/11/29 10:17:22;;;;;;;3.13;0.98;;;3.30;99.90;;;;;;5094577;28;20101;-69
2023/11/29 10:19:47;;;;;;;2.05;0.60;;;3.30;99.90;;;;;;5128444;27;20560;-70
2023/11/29 10:22:17;;;;;;;7.90;0.80;;;3.40;99.90;;;;;;5093751;28;20591;-69
2023/11/29 10:24:44;;;;;;;8.23;1.02;;;3.40;99.90;;;;;;5095727;28;20036;-70
2023/11/29 10:27:11;;;;;;;4.32;1.15;;;3.40;99.90;;;;;;5093800;28;20044;-69
2023/11/29 10:29:36;;;;;;;4.88;0.60;;;3.50;99.90;;;;;;5096535;28;20102;-70
2023/11/29 10:32:04;;;;;;;3.90;0.90;;;3.50;99.90;;;;;;5095939;28;20545;-69
2023/11/29 10:34:33;;;;;;;1.80;0.68;;;3.50;99.90;;;;;;5097081;28;20092;-69
2023/11/29 10:37:00;;;;;;;7.55;0.90;;;3.60;99.90;;;;;;5089290;28;20050;-70
2023/11/29 10:39:30;;;;;;;2.92;0.90;;;3.60;99.90;;;;;;5129688;27;20047;-69
2023/11/29 10:41:57;;;;;;;3.47;1.00;;;3.70;99.90;;;;;;5095185;28;20042;-69
2023/11/29 10:44:37;;;;;;;5.70;1.02;;;3.70;99.90;;;;;;5110344;28;20043;-69
2023/11/29 10:47:30;;;;;;;5.13;0.85;;;3.70;99.90;;;;;;5126837;27;20032;-69
2023/11/29 10:50:09;;;;;;;5.70;1.52;;;3.70;99.90;;;;;;5102139;28;20105;-69
2023/11/29 10:52:35;;;;;;;1.80;0.90;;;3.70;99.90;;;;;;5098065;28;20044;-69
2023/11/29 10:55:01;;;;;;;5.43;0.88;;;3.70;99.90;;;;;;5096530;28;20075;-69
2023/11/29 10:57:43;;;;;;;2.30;0.50;;;3.80;99.90;;;;;;5088408;28;20750;-69
2023/11/29 11:00:15;;;;;;;3.42;0.88;;;3.80;99.90;;;;;;5093409;28;20089;-69
2023/11/29 11:02:46;;;;;;;3.22;0.50;;;3.90;99.90;;;;;;5096483;28;20039;-70
2023/11/29 11:05:15;;;;;;;2.83;0.70;;;4.00;99.90;;;;;;5126302;27;20055;-70
2023/11/29 11:07:42;;;;;;;3.92;0.95;;;4.10;99.90;;;;;;5096179;28;20071;-70
2023/11/29 11:10:23;;;;;;;4.32;0.50;;;4.30;99.90;;;;;;5097885;28;20127;-70
2023/11/29 11:12:49;;;;;;;4.43;1.10;;;4.50;99.90;;;;;;5132000;27;20047;-69
2023/11/29 11:15:24;;;;;;;5.47;1.35;;;4.70;99.90;;;;;;5097296;28;20044;-69
2023/11/29 11:18:01;;;;;;;6.28;0.63;;;5.00;99.90;;;;;;5098798;27;20547;-70
2023/11/29 11:20:50;;;;;;;7.82;0.60;;;5.20;99.90;;;;;;5096773;27;20811;-70
2023/11/29 11:23:18;;;;;;;2.75;0.93;;;5.30;99.90;;;;;;5128050;27;20534;-70
2023/11/29 11:25:43;;;;;;;1.50;0.52;;;5.40;99.90;;;;;;5127868;27;20076;-70
2023/11/29 11:28:28;;;;;;;2.05;0.55;;;5.50;99.90;;;;;;5129826;27;20082;-70
2023/11/29 11:30:54;;;;;;;1.08;0.40;;;5.70;99.90;;;;;;5096004;28;20394;-70
2023/11/29 11:33:20;;;;;;;6.82;0.50;;;5.80;99.90;;;;;;5115441;27;20400;-70
2023/11/29 11:35:47;;;;;;;4.90;0.50;;;5.90;99.90;;;;;;5096051;28;20040;-71
2023/11/29 11:38:12;;;;;;;2.17;1.10;;;5.80;99.90;;;;;;5093485;27;20032;-70
2023/11/29 11:40:40;;;;;;;6.70;1.65;;;5.80;99.90;;;;;;5128635;27;20035;-70
2023/11/29 11:43:08;;;;;;;4.13;0.65;;;5.70;99.90;;;;;;5095222;27;20047;-70
2023/11/29 11:45:36;;;;;;;3.58;0.70;;;5.60;99.90;;;;;;5095522;27;20035;-70
2023/11/29 11:48:03;;;;;;;1.98;0.63;;;5.50;99.90;;;;;;5096068;28;20059;-70
2023/11/29 11:50:30;;;;;;;3.45;0.50;;;5.40;99.90;;;;;;5092151;27;20498;-70
2023/11/29 11:52:59;;;;;;;1.02;0.40;;;5.40;99.90;;;;;;5093609;27;20157;-70
2023/11/29 11:55:27;;;;;;;3.15;0.80;;;5.30;99.90;;;;;;5094455;28;20066;-70
2023/11/29 11:58:04;;;;;;;1.90;0.55;;;5.30;99.90;;;;;;5106736;28;20023;-71
2023/11/29 12:00:30;;;;;;;2.13;0.50;;;5.20;99.90;;;;;;5129080;27;20092;-70
2023/11/29 12:02:56;;;;;;;2.70;0.60;;;5.10;99.90;;;;;;5130664;27;20036;-70
2023/11/29 12:05:21;;;;;;;3.28;0.80;;;4.90;99.90;;;;;;5097134;28;20366;-70
2023/11/29 12:07:48;;;;;;;4.03;0.40;;;4.90;99.90;;;;;;5095515;28;20059;-70
2023/11/29 12:10:14;;;;;;;2.17;0.57;;;4.80;99.90;;;;;;5096534;27;20050;-70
2023/11/29 12:12:42;;;;;;;2.80;0.60;;;4.70;99.90;;;;;;5094914;28;20434;-69
2023/11/29 12:15:15;;;;;;;2.60;0.40;;;4.70;99.90;;;;;;5098687;27;20556;-70
2023/11/29 12:17:41;;;;;;;1.48;0.43;;;4.60;99.90;;;;;;5094442;28;20047;-70
2023/11/29 12:20:07;;;;;;;1.65;0.70;;;4.60;99.90;;;;;;5077598;27;20078;-70
2023/11/29 12:22:33;;;;;;;5.60;0.50;;;4.60;99.90;;;;;;5096650;27;20063;-70
2023/11/29 12:25:00;;;;;;;3.33;1.23;;;4.50;99.90;;;;;;5096855;27;20085;-70
2023/11/29 12:27:27;;;;;;;8.60;0.80;;;4.60;99.90;;;;;;5097507;27;20039;-70
2023/11/29 12:29:57;;;;;;;3.63;0.98;;;4.60;99.90;;;;;;5090450;28;20040;-70
2023/11/29 12:32:26;;;;;;;2.13;0.52;;;4.60;99.90;;;;;;5099556;27;20085;-80
2023/11/29 12:34:52;;;;;;;4.13;0.40;;;4.60;99.90;;;;;;5130064;27;20047;-70
2023/11/29 12:37:18;;;;;;;2.58;0.50;;;4.60;99.90;;;;;;5126822;27;20623;-70
2023/11/29 12:39:45;;;;;;;1.33;0.40;;;4.60;99.90;;;;;;5095056;27;20113;-70
2023/11/29 12:42:11;;;;;;;3.10;1.17;;;4.60;99.90;;;;;;5094945;27;20055;-70
2023/11/29 12:44:38;;;;;;;2.67;0.43;;;4.60;99.90;;;;;;5125610;27;20032;-70
2023/11/29 12:47:04;;;;;;;2.15;0.30;;;4.60;99.90;;;;;;5092592;28;20035;-70
2023/11/29 12:49:31;;;;;;;1.30;0.65;;;4.50;99.90;;;;;;5124801;27;20062;-69
2023/11/29 12:51:57;;;;;;;2.42;0.43;;;4.50;99.90;;;;;;5094252;27;20043;-70
2023/11/29 12:54:24;;;;;;;1.15;0.68;;;4.50;99.90;;;;;;5126184;27;20047;-69